createdAt,value
2018-07-11T00:00:46.861Z,8.50
2018-07-11T00:03:15.153Z,10.23
2018-07-11T00:05:43.524Z,7.77
2018-07-11T00:08:11.712Z,6.23
2018-07-11T00:10:39.897Z,7.33
2018-07-11T00:13:07.852Z,6.40
2018-07-11T00:15:36.054Z,6.10
2018-07-11T00:18:04.316Z,6.07
2018-07-11T00:20:32.476Z,7.30
2018-07-11T00:23:00.653Z,7.77
2018-07-11T00:25:28.812Z,11.27
2018-07-11T00:27:57.014Z,8.87
2018-07-11T00:30:25.174Z,6.67
2018-07-11T00:32:53.358Z,6.30
2018-07-11T00:35:21.526Z,7.23
2018-07-11T00:37:49.714Z,4.90
2018-07-11T00:40:17.933Z,4.80
2018-07-11T00:42:46.134Z,5.50
2018-07-11T00:45:14.311Z,8.07
2018-07-11T00:47:42.501Z,8.73
2018-07-11T00:50:10.661Z,5.90
2018-07-11T00:52:38.865Z,5.47
2018-07-11T00:55:07.043Z,6.27
2018-07-11T00:57:36.073Z,6.93
2018-07-11T01:00:04.246Z,4.50
2018-07-11T01:02:32.828Z,5.40
2018-07-11T01:05:01.033Z,5.57
2018-07-11T01:07:29.743Z,5.13
2018-07-11T01:09:57.901Z,6.33
2018-07-11T01:12:26.225Z,5.87
2018-07-11T01:14:54.401Z,5.43
2018-07-11T01:17:27.946Z,5.63
2018-07-11T01:19:56.757Z,6.90
2018-07-11T01:22:24.949Z,6.00
2018-07-11T01:24:53.194Z,4.90
2018-07-11T01:27:21.363Z,5.80
2018-07-11T01:29:49.552Z,6.07
2018-07-11T01:32:17.705Z,11.90
2018-07-11T01:34:45.874Z,6.87
2018-07-11T01:37:14.046Z,6.40
2018-07-11T01:39:42.220Z,4.40
2018-07-11T01:42:10.389Z,7.07
2018-07-11T01:44:38.569Z,6.00
2018-07-11T01:47:06.769Z,4.23
2018-07-11T01:49:34.949Z,5.67
2018-07-11T01:52:14.554Z,5.00
2018-07-11T01:54:42.733Z,9.07
2018-07-11T01:57:11.572Z,6.57
2018-07-11T01:59:39.782Z,7.90
2018-07-11T02:02:08.025Z,6.27
2018-07-11T02:04:39.736Z,5.20
2018-07-11T02:07:08.648Z,6.27
2018-07-11T02:09:37.795Z,7.90
2018-07-11T02:12:06.101Z,6.43
2018-07-11T02:14:35.424Z,6.77
2018-07-11T02:17:04.010Z,6.30
2018-07-11T02:19:32.200Z,6.93
2018-07-11T02:22:00.392Z,6.80
2018-07-11T02:24:28.564Z,10.40
2018-07-11T02:26:56.746Z,8.70
2018-07-11T02:29:25.849Z,7.00
2018-07-11T02:31:54.041Z,7.73
2018-07-11T02:34:36.537Z,6.70
2018-07-11T02:37:05.145Z,6.77
2018-07-11T02:39:33.821Z,7.63
2018-07-11T02:42:02.030Z,6.33
2018-07-11T02:44:30.583Z,6.60
2018-07-11T02:47:04.189Z,6.07
2018-07-11T02:49:32.420Z,6.17
2018-07-11T02:52:00.609Z,6.23
2018-07-11T02:54:28.765Z,6.50
2018-07-11T02:56:56.945Z,7.70
2018-07-11T02:59:25.132Z,5.67
2018-07-11T03:01:53.313Z,8.93
2018-07-11T03:04:21.509Z,7.10
2018-07-11T03:06:49.684Z,7.60
2018-07-11T03:09:17.895Z,8.83
2018-07-11T03:11:46.219Z,8.97
2018-07-11T03:14:14.379Z,10.20
2018-07-11T03:16:42.534Z,8.90
2018-07-11T03:19:10.714Z,10.43
2018-07-11T03:21:38.890Z,9.07
2018-07-11T03:24:07.080Z,13.37
2018-07-11T03:26:35.252Z,9.93
2018-07-11T03:29:03.193Z,10.20
2018-07-11T03:31:31.385Z,9.33
2018-07-11T03:33:59.619Z,11.10
2018-07-11T03:36:27.790Z,11.83
2018-07-11T03:38:55.974Z,10.50
2018-07-11T03:41:24.364Z,10.67
2018-07-11T03:43:52.792Z,10.03
2018-07-11T03:46:21.036Z,8.90
2018-07-11T03:48:49.235Z,8.90
2018-07-11T03:51:17.389Z,10.27
2018-07-11T03:53:45.579Z,9.57
2018-07-11T03:56:13.574Z,11.23
2018-07-11T03:58:41.782Z,10.60
2018-07-11T04:01:09.969Z,12.00
2018-07-11T04:03:38.154Z,14.70
2018-07-11T04:06:06.342Z,10.97
2018-07-11T04:08:34.533Z,10.23
2018-07-11T04:11:02.705Z,11.20
2018-07-11T04:13:30.876Z,15.07
2018-07-11T04:15:59.049Z,14.27
2018-07-11T04:18:29.360Z,16.50
2018-07-11T04:20:58.200Z,10.80
2018-07-11T04:23:26.937Z,12.23
2018-07-11T04:25:55.313Z,15.83
2018-07-11T04:28:25.033Z,10.80
2018-07-11T04:30:52.988Z,11.20
2018-07-11T04:33:21.152Z,13.03
2018-07-11T04:35:49.970Z,11.57
2018-07-11T04:38:18.184Z,11.90
2018-07-11T04:40:47.057Z,12.00
2018-07-11T04:43:15.373Z,14.67
2018-07-11T04:45:44.017Z,15.00
2018-07-11T04:48:12.180Z,12.13
2018-07-11T04:50:40.413Z,10.93
2018-07-11T04:53:10.282Z,11.63
2018-07-11T04:55:39.357Z,11.70
2018-07-11T04:58:07.828Z,10.10
2018-07-11T05:00:36.005Z,10.60
2018-07-11T05:03:04.199Z,11.63
2018-07-11T05:05:32.378Z,11.27
2018-07-11T05:08:00.571Z,8.80
2018-07-11T05:10:28.934Z,10.83
2018-07-11T05:12:57.126Z,10.10
2018-07-11T05:15:25.305Z,9.70
2018-07-11T05:17:53.506Z,8.67
2018-07-11T05:20:21.706Z,12.03
2018-07-11T05:22:49.899Z,10.40
2018-07-11T05:25:18.060Z,10.47
2018-07-11T05:27:46.296Z,9.23
2018-07-11T05:30:14.473Z,11.47
2018-07-11T05:32:42.648Z,12.33
2018-07-11T05:35:17.284Z,11.07
2018-07-11T05:37:45.482Z,9.17
2018-07-11T05:40:14.089Z,10.57
2018-07-11T05:42:42.273Z,11.37
2018-07-11T05:45:10.444Z,11.53
2018-07-11T05:47:38.650Z,12.30
2018-07-11T05:50:06.871Z,10.70
2018-07-11T05:52:35.082Z,10.10
2018-07-11T05:55:03.271Z,11.13
2018-07-11T05:57:31.454Z,10.47
2018-07-11T05:59:59.727Z,9.53
2018-07-11T06:02:27.866Z,9.33
2018-07-11T06:04:56.041Z,10.40
2018-07-11T06:07:24.213Z,9.10
2018-07-11T06:09:52.458Z,8.07
2018-07-11T06:12:20.633Z,8.67
2018-07-11T06:14:48.853Z,14.13
2018-07-11T06:17:17.013Z,7.47
2018-07-11T06:19:45.208Z,8.27
2018-07-11T06:22:13.379Z,11.90
2018-07-11T06:24:41.609Z,11.50
2018-07-11T06:27:09.995Z,9.97
2018-07-11T06:29:38.170Z,9.67
2018-07-11T06:32:06.340Z,12.47
2018-07-11T06:34:34.521Z,8.23
2018-07-11T06:37:02.749Z,8.80
2018-07-11T06:39:30.942Z,9.10
2018-07-11T06:41:59.124Z,17.70
2018-07-11T06:44:27.314Z,8.03
2018-07-11T06:46:55.483Z,7.90
2018-07-11T06:49:23.694Z,9.33
2018-07-11T06:51:52.229Z,10.97
2018-07-11T06:54:20.376Z,7.63
2018-07-11T06:56:48.552Z,9.10
2018-07-11T06:59:16.774Z,12.33
2018-07-11T07:01:45.147Z,8.23
2018-07-11T07:04:13.351Z,8.90
2018-07-11T07:06:41.562Z,11.10
2018-07-11T07:09:09.720Z,9.60
2018-07-11T07:11:37.939Z,11.37
2018-07-11T07:14:06.356Z,9.07
2018-07-11T07:16:34.600Z,8.03
2018-07-11T07:19:02.743Z,6.53
2018-07-11T07:21:30.932Z,10.23
2018-07-11T07:23:59.201Z,7.90
2018-07-11T07:26:27.391Z,9.40
2018-07-11T07:28:55.708Z,8.77
2018-07-11T07:31:23.895Z,8.90
2018-07-11T07:33:52.073Z,10.43
2018-07-11T07:36:20.329Z,9.83
2018-07-11T07:38:48.501Z,14.53
2018-07-11T07:41:16.671Z,11.40
2018-07-11T07:43:44.988Z,11.13
2018-07-11T07:46:13.204Z,8.17
2018-07-11T07:48:41.421Z,9.80
2018-07-11T07:51:09.601Z,8.73
2018-07-11T07:53:37.823Z,8.93
2018-07-11T07:56:06.180Z,10.73
2018-07-11T07:58:34.384Z,11.87
2018-07-11T08:01:02.875Z,7.27
2018-07-11T08:03:33.464Z,7.37
2018-07-11T08:06:01.683Z,8.33
2018-07-11T08:08:29.866Z,8.43
2018-07-11T08:10:58.042Z,7.77
2018-07-11T08:13:26.270Z,11.57
2018-07-11T08:15:54.469Z,9.43
2018-07-11T08:18:22.660Z,8.27
2018-07-11T08:20:50.852Z,10.67
2018-07-11T08:23:34.005Z,10.67
2018-07-11T08:26:13.634Z,8.20
2018-07-11T08:30:56.691Z,7.97
2018-07-11T08:33:36.202Z,9.70
2018-07-11T08:36:24.979Z,7.50
2018-07-11T08:39:17.833Z,8.00
2018-07-11T08:44:05.350Z,7.70
2018-07-11T08:46:44.473Z,9.63
2018-07-11T08:50:22.884Z,9.40
2018-07-11T08:55:04.541Z,7.40
2018-07-11T08:59:47.117Z,9.07
2018-07-11T09:02:27.489Z,9.63
2018-07-11T09:07:08.682Z,7.70
2018-07-11T09:11:59.490Z,8.67
2018-07-11T09:14:49.230Z,11.30
2018-07-11T09:19:31.218Z,12.07
2018-07-11T09:22:12.673Z,9.53
2018-07-11T09:24:42.168Z,7.23
2018-07-11T09:27:10.712Z,6.40
2018-07-11T09:29:39.644Z,6.53
2018-07-11T09:32:07.850Z,6.87
2018-07-11T09:34:36.085Z,6.07
2018-07-11T09:37:04.288Z,6.77
2018-07-11T09:39:32.548Z,5.60
2018-07-11T09:42:01.037Z,4.10
2018-07-11T09:44:29.258Z,2.43
2018-07-11T09:46:57.494Z,1.67
2018-07-11T09:49:26.519Z,2.33
2018-07-11T09:51:55.281Z,2.23
2018-07-11T09:54:23.447Z,3.83
2018-07-11T09:56:51.834Z,2.33
2018-07-11T09:59:19.995Z,6.73
2018-07-11T10:01:48.205Z,3.13
2018-07-11T10:04:16.655Z,2.23
2018-07-11T10:06:44.841Z,2.23
2018-07-11T10:09:13.017Z,3.43
2018-07-11T10:11:41.273Z,3.63
2018-07-11T10:14:09.493Z,1.97
2018-07-11T10:16:37.681Z,2.27
2018-07-11T10:19:06.184Z,3.97
2018-07-11T10:21:35.155Z,2.40
2018-07-11T10:24:03.477Z,4.90
2018-07-11T10:26:31.710Z,2.87
2018-07-11T10:28:59.945Z,3.13
2018-07-11T10:31:28.893Z,3.60
2018-07-11T10:33:57.081Z,4.07
2018-07-11T10:36:25.253Z,3.93
2018-07-11T10:38:53.547Z,8.17
2018-07-11T10:41:21.754Z,5.23
2018-07-11T10:43:49.969Z,2.93
2018-07-11T10:46:18.165Z,5.97
2018-07-11T10:48:46.345Z,5.57
2018-07-11T10:51:14.556Z,2.60
2018-07-11T10:53:42.734Z,3.00
2018-07-11T10:56:10.897Z,3.63
2018-07-11T10:58:39.100Z,3.43
2018-07-11T11:01:07.369Z,3.10
2018-07-11T11:03:35.553Z,2.40
2018-07-11T11:06:03.764Z,4.10
2018-07-11T11:08:32.341Z,2.83
2018-07-11T11:11:00.519Z,3.80
2018-07-11T11:13:28.749Z,2.70
2018-07-11T11:15:57.505Z,2.97
2018-07-11T11:18:26.042Z,5.40
2018-07-11T11:20:55.520Z,5.40
2018-07-11T11:23:23.916Z,6.03
2018-07-11T11:25:52.139Z,5.80
2018-07-11T11:28:20.320Z,4.57
2018-07-11T11:30:48.481Z,5.07
2018-07-11T11:33:16.649Z,3.27
2018-07-11T11:35:44.898Z,4.47
2018-07-11T11:38:13.000Z,2.60
2018-07-11T11:40:41.198Z,4.17
2018-07-11T11:43:09.382Z,6.50
2018-07-11T11:45:37.569Z,7.80
2018-07-11T11:48:05.757Z,3.80
2018-07-11T11:50:33.989Z,2.70
2018-07-11T11:53:02.449Z,5.87
2018-07-11T11:55:30.819Z,4.80
2018-07-11T11:57:58.993Z,7.83
2018-07-11T12:00:27.161Z,5.73
2018-07-11T12:02:55.351Z,3.57
2018-07-11T12:05:24.027Z,4.07
2018-07-11T12:07:52.208Z,5.03
2018-07-11T12:10:20.476Z,5.30
2018-07-11T12:12:48.857Z,3.33
2018-07-11T12:15:17.050Z,5.90
2018-07-11T12:17:45.381Z,3.30
2018-07-11T12:20:13.542Z,3.50
2018-07-11T12:22:41.706Z,3.00
2018-07-11T12:25:09.886Z,5.07
2018-07-11T12:27:38.084Z,5.13
2018-07-11T12:30:06.258Z,2.87
2018-07-11T12:32:34.239Z,3.93
2018-07-11T12:35:02.405Z,3.27
2018-07-11T12:37:31.409Z,5.63
2018-07-11T12:39:59.600Z,16.27
2018-07-11T12:42:27.773Z,3.20
2018-07-11T12:44:55.929Z,11.77
2018-07-11T12:47:29.560Z,4.77
2018-07-11T12:49:57.704Z,3.07
2018-07-11T12:52:25.893Z,8.43
2018-07-11T12:54:54.053Z,3.67
2018-07-11T12:57:22.309Z,4.13
2018-07-11T12:59:50.485Z,3.73
2018-07-11T13:02:18.721Z,5.33
2018-07-11T13:04:46.929Z,3.63
2018-07-11T13:07:15.124Z,5.23
2018-07-11T13:09:43.334Z,3.70
2018-07-11T13:12:11.539Z,4.07
2018-07-11T13:14:39.713Z,3.90
2018-07-11T13:17:07.914Z,4.17
2018-07-11T13:19:36.302Z,4.17
2018-07-11T13:22:04.578Z,7.00
2018-07-11T13:24:32.871Z,3.40
2018-07-11T13:27:01.034Z,13.00
2018-07-11T13:29:29.225Z,3.67
2018-07-11T13:31:57.437Z,3.20
2018-07-11T13:34:25.649Z,4.73
2018-07-11T13:36:53.828Z,5.23
2018-07-11T13:39:22.797Z,3.37
2018-07-11T13:41:51.580Z,4.07
2018-07-11T13:44:19.766Z,6.43
2018-07-11T13:46:48.261Z,4.23
2018-07-11T13:49:16.466Z,3.43
2018-07-11T13:51:45.571Z,3.97
2018-07-11T13:54:13.737Z,3.20
2018-07-11T13:56:41.904Z,3.97
2018-07-11T13:59:10.092Z,3.17
2018-07-11T14:01:38.731Z,4.90
2018-07-11T14:04:06.980Z,5.37
2018-07-11T14:06:35.167Z,2.83
2018-07-11T14:09:04.638Z,4.47
2018-07-11T14:11:32.829Z,8.37
2018-07-11T14:14:01.143Z,6.63
2018-07-11T14:16:29.257Z,8.43
2018-07-11T14:18:57.425Z,5.93
2018-07-11T14:21:25.632Z,5.23
2018-07-11T14:23:54.480Z,7.23
2018-07-11T14:26:22.822Z,5.20
2018-07-11T14:28:52.665Z,5.07
2018-07-11T14:31:35.645Z,5.30
2018-07-11T14:34:05.846Z,4.30
2018-07-11T14:36:34.568Z,5.97
2018-07-11T14:39:04.001Z,5.40
2018-07-11T14:41:32.169Z,8.33
2018-07-11T14:44:00.764Z,14.03
2018-07-11T14:46:29.799Z,8.77
2018-07-11T14:48:58.761Z,4.40
2018-07-11T14:51:27.100Z,4.10
2018-07-11T14:53:56.433Z,4.60
2018-07-11T14:56:24.754Z,4.87
2018-07-11T14:58:55.725Z,4.37
2018-07-11T15:01:24.161Z,6.83
2018-07-11T15:03:52.351Z,4.57
2018-07-11T15:06:20.821Z,6.17
2018-07-11T15:08:49.226Z,6.07
2018-07-11T15:11:17.309Z,5.57
2018-07-11T15:13:45.469Z,5.17
2018-07-11T15:16:13.665Z,3.97
2018-07-11T15:18:42.115Z,4.87
2018-07-11T15:21:10.343Z,5.30
2018-07-11T15:23:38.521Z,4.83
2018-07-11T15:26:06.701Z,5.13
2018-07-11T15:28:34.891Z,4.37
2018-07-11T15:31:03.212Z,4.93
2018-07-11T15:33:31.442Z,4.60
2018-07-11T15:35:59.368Z,5.10
2018-07-11T15:38:28.619Z,6.13
2018-07-11T15:40:58.896Z,3.97
2018-07-11T15:43:27.933Z,3.13
2018-07-11T15:45:56.601Z,4.17
2018-07-11T15:48:24.869Z,3.97
2018-07-11T15:50:53.787Z,3.93
2018-07-11T15:53:22.586Z,3.33
2018-07-11T15:55:51.458Z,4.93
2018-07-11T15:58:20.677Z,4.90
2018-07-11T16:00:49.069Z,4.07
2018-07-11T16:03:18.541Z,6.40
2018-07-11T16:05:47.550Z,5.90
2018-07-11T16:08:17.875Z,4.93
2018-07-11T16:10:49.574Z,4.00
2018-07-11T16:13:17.761Z,4.73
2018-07-11T16:15:46.397Z,4.63
2018-07-11T16:18:14.572Z,5.10
2018-07-11T16:20:42.848Z,6.23
2018-07-11T16:23:11.309Z,7.77
2018-07-11T16:25:40.496Z,5.27
2018-07-11T16:28:09.225Z,4.57
2018-07-11T16:30:37.432Z,4.27
2018-07-11T16:33:05.760Z,6.47
2018-07-11T16:35:33.938Z,4.03
2018-07-11T16:38:02.553Z,10.50
2018-07-11T16:40:31.697Z,4.77
2018-07-11T16:43:00.302Z,4.73
2018-07-11T16:45:28.969Z,3.97
2018-07-11T16:47:57.662Z,5.23
2018-07-11T16:50:25.873Z,3.87
2018-07-11T16:52:54.333Z,3.10
2018-07-11T16:55:22.802Z,2.67
2018-07-11T16:57:52.109Z,4.57
2018-07-11T17:00:23.148Z,5.47
2018-07-11T17:02:59.436Z,5.37
2018-07-11T17:05:28.809Z,4.83
2018-07-11T17:07:57.979Z,6.53
2018-07-11T17:10:27.746Z,6.20
2018-07-11T17:13:09.410Z,3.23
2018-07-11T17:15:38.067Z,3.80
2018-07-11T17:18:06.903Z,2.70
2018-07-11T17:20:35.185Z,4.20
2018-07-11T17:23:05.814Z,2.83
2018-07-11T17:25:38.947Z,3.67
2018-07-11T17:28:07.142Z,7.23
2018-07-11T17:30:37.771Z,5.17
2018-07-11T17:33:07.435Z,5.10
2018-07-11T17:35:36.408Z,4.10
2018-07-11T17:38:06.404Z,26.70
2018-07-11T17:40:36.833Z,3.53
2018-07-11T17:43:06.836Z,5.90
2018-07-11T17:45:36.265Z,3.93
2018-07-11T17:49:13.693Z,4.47
2018-07-11T17:51:48.502Z,5.87
2018-07-11T17:54:16.819Z,4.77
2018-07-11T17:56:54.191Z,5.23
2018-07-11T17:59:31.279Z,4.30
2018-07-11T18:01:59.654Z,4.17
2018-07-11T18:04:32.928Z,5.03
2018-07-11T18:09:09.879Z,3.70
2018-07-11T18:11:48.077Z,4.00
2018-07-11T18:14:23.883Z,6.80
2018-07-11T18:16:58.685Z,6.03
2018-07-11T18:19:34.371Z,11.63
2018-07-11T18:22:09.705Z,7.13
2018-07-11T18:24:48.054Z,6.93
2018-07-11T18:27:55.994Z,6.77
2018-07-11T18:31:34.354Z,5.87
2018-07-11T18:34:15.921Z,5.77
2018-07-11T18:36:49.354Z,7.53
2018-07-11T18:39:25.757Z,6.50
2018-07-11T18:42:13.062Z,7.40
2018-07-11T18:45:19.360Z,4.67
2018-07-11T18:47:59.377Z,5.50
2018-07-11T18:51:04.669Z,5.00
2018-07-11T18:54:14.684Z,6.47
2018-07-11T18:57:08.909Z,4.80
2018-07-11T19:01:48.694Z,7.53
2018-07-11T19:04:24.603Z,5.60
2018-07-11T19:07:14.360Z,8.63
2018-07-11T19:09:50.232Z,6.47
2018-07-11T19:12:29.281Z,8.53
2018-07-11T19:15:05.353Z,6.07
2018-07-11T19:17:46.395Z,6.60
2018-07-11T19:20:32.483Z,11.63
2018-07-11T19:24:12.227Z,7.50
2018-07-11T19:26:49.241Z,6.87
2018-07-11T19:29:25.856Z,11.40
2018-07-11T19:32:03.702Z,6.30
2018-07-11T19:37:01.498Z,6.00
2018-07-11T19:39:39.448Z,8.53
2018-07-11T19:42:15.401Z,8.23
2018-07-11T19:46:52.617Z,9.13
2018-07-11T19:49:36.649Z,7.93
2018-07-11T19:52:13.829Z,7.67
2018-07-11T19:54:49.618Z,5.43
2018-07-11T19:57:17.796Z,8.07
2018-07-11T19:59:46.001Z,5.83
2018-07-11T20:02:14.181Z,8.30
2018-07-11T20:04:42.367Z,8.47
2018-07-11T20:07:10.533Z,5.97
2018-07-11T20:09:38.724Z,10.73
2018-07-11T20:12:07.113Z,8.03
2018-07-11T20:14:35.290Z,8.07
2018-07-11T20:17:03.260Z,7.60
2018-07-11T20:19:31.478Z,7.30
2018-07-11T20:21:59.664Z,8.33
2018-07-11T20:24:27.861Z,6.37
2018-07-11T20:26:56.053Z,8.73
2018-07-11T20:29:24.225Z,7.50
2018-07-11T20:31:52.413Z,8.67
2018-07-11T20:34:20.625Z,5.67
2018-07-11T20:36:48.841Z,10.33
2018-07-11T20:39:17.085Z,8.33
2018-07-11T20:41:45.285Z,15.60
2018-07-11T20:44:13.476Z,6.80
2018-07-11T20:46:41.707Z,8.60
2018-07-11T20:49:15.821Z,9.00
2018-07-11T20:51:43.993Z,6.43
2018-07-11T20:54:12.180Z,6.13
2018-07-11T20:56:40.368Z,8.80
2018-07-11T20:59:19.857Z,8.77
2018-07-11T21:01:59.486Z,7.97
2018-07-11T21:04:40.652Z,10.47
2018-07-11T21:07:18.704Z,9.77
2018-07-11T21:10:01.369Z,8.60
2018-07-11T21:12:34.701Z,10.80
2018-07-11T21:17:35.289Z,11.23
2018-07-11T21:20:03.461Z,10.40
2018-07-11T21:22:31.633Z,7.67
2018-07-11T21:24:59.812Z,8.83
2018-07-11T21:27:27.999Z,8.30
2018-07-11T21:29:56.005Z,8.47
2018-07-11T21:32:24.168Z,9.47
2018-07-11T21:34:52.348Z,8.13
2018-07-11T21:37:20.525Z,9.93
2018-07-11T21:39:48.709Z,9.07
2018-07-11T21:42:16.889Z,8.63
2018-07-11T21:44:45.097Z,11.37
2018-07-11T21:47:13.276Z,8.80
2018-07-11T21:49:41.448Z,7.37
2018-07-11T21:52:09.666Z,11.30
2018-07-11T21:54:38.148Z,9.23
2018-07-11T21:57:06.318Z,7.80
2018-07-11T21:59:34.525Z,10.73
2018-07-11T22:02:02.705Z,11.17
2018-07-11T22:04:30.909Z,8.03
2018-07-11T22:06:59.085Z,10.37
2018-07-11T22:09:27.299Z,10.60
2018-07-11T22:11:55.449Z,12.47
2018-07-11T22:14:23.621Z,10.47
2018-07-11T22:16:51.820Z,8.43
2018-07-11T22:19:20.103Z,9.40
2018-07-11T22:21:47.221Z,8.20
2018-07-11T22:24:14.419Z,12.80
2018-07-11T22:26:41.625Z,11.47
2018-07-11T22:29:08.816Z,11.50
2018-07-11T22:31:36.014Z,7.87
2018-07-11T22:34:03.748Z,10.37
2018-07-11T22:36:30.941Z,11.83
2018-07-11T22:38:58.140Z,10.57
2018-07-11T22:41:25.380Z,8.63
2018-07-11T22:43:52.578Z,12.33
2018-07-11T22:46:19.789Z,11.53
2018-07-11T22:48:46.977Z,15.60
2018-07-11T22:51:14.562Z,10.03
2018-07-11T22:53:41.754Z,11.03
2018-07-11T22:56:08.944Z,6.93
2018-07-11T22:58:36.157Z,12.60
2018-07-11T23:01:03.353Z,11.53
2018-07-11T23:03:30.545Z,11.77
2018-07-11T23:05:57.775Z,10.80
2018-07-11T23:08:24.974Z,8.87
2018-07-11T23:10:52.189Z,10.10
2018-07-11T23:13:19.381Z,12.13
2018-07-11T23:15:46.573Z,8.53
2018-07-11T23:18:13.769Z,9.57
2018-07-11T23:20:40.963Z,10.47
2018-07-11T23:23:08.233Z,8.20
2018-07-11T23:25:35.442Z,10.27
2018-07-11T23:28:02.809Z,8.63
2018-07-11T23:30:30.007Z,7.10
2018-07-11T23:32:57.197Z,12.50
2018-07-11T23:35:24.616Z,7.50
2018-07-11T23:37:51.993Z,9.80
2018-07-11T23:40:19.226Z,9.53
2018-07-11T23:42:46.424Z,9.93
2018-07-11T23:45:13.651Z,13.47
2018-07-11T23:47:40.854Z,9.03
2018-07-11T23:50:08.049Z,10.20
2018-07-11T23:52:35.258Z,12.57
2018-07-11T23:55:02.458Z,12.27
2018-07-11T23:57:29.677Z,12.37
2018-07-11T23:59:56.873Z,12.10
